createdAt,value
2018-09-25T00:55:40.090Z,24.3
2018-09-25T00:56:29.301Z,24.4
2018-09-25T00:57:19.890Z,24.4
2018-09-25T00:58:09.972Z,24.4
2018-09-25T00:59:00.031Z,24.3
2018-09-25T00:59:49.526Z,24.4
2018-09-25T01:00:39.904Z,24.3
2018-09-25T01:01:29.912Z,24.4
2018-09-25T01:02:20.276Z,24.4
2018-09-25T01:03:10.104Z,24.4
2018-09-25T01:04:00.118Z,24.4
2018-09-25T01:04:50.489Z,24.3
2018-09-25T01:05:40.521Z,24.4
2018-09-25T01:06:30.085Z,24.3
2018-09-25T01:07:20.645Z,24.3
2018-09-25T01:08:10.395Z,24.4
2018-09-25T01:09:00.755Z,24.3
2018-09-25T01:09:50.517Z,24.3
2018-09-25T01:10:40.608Z,24.4
2018-09-25T01:11:31.007Z,24.4
2018-09-25T01:12:20.735Z,24.3
2018-09-25T01:13:11.072Z,24.3
2018-09-25T01:14:00.859Z,24.3
2018-09-25T01:14:50.975Z,24.3
2018-09-25T01:15:41.277Z,24.3
2018-09-25T01:16:31.335Z,24.3
2018-09-25T01:17:21.395Z,24.3
2018-09-25T01:18:10.872Z,24.3
2018-09-25T01:19:01.649Z,24.3
2018-09-25T01:19:51.563Z,24.3
2018-09-25T01:20:41.654Z,24.3
2018-09-25T01:21:31.409Z,24.3
2018-09-25T01:22:21.197Z,24.3
2018-09-25T01:23:11.516Z,24.3
2018-09-25T01:24:01.589Z,24.3
2018-09-25T01:24:51.716Z,24.3
2018-09-25T01:25:42.013Z,24.3
2018-09-25T01:26:31.766Z,24.3
2018-09-25T01:27:22.167Z,24.3
2018-09-25T01:28:11.627Z,24.3
2018-09-25T01:29:01.722Z,24.3
2018-09-25T01:29:52.070Z,24.3
2018-09-25T01:30:41.571Z,24.3
2018-09-25T01:31:32.148Z,24.3
2018-09-25T01:32:22.561Z,24.3
2018-09-25T01:33:12.332Z,24.3
2018-09-25T01:34:02.337Z,24.3
2018-09-25T01:34:52.208Z,24.3
2018-09-25T01:35:42.725Z,24.3
2018-09-25T01:36:32.785Z,24.3
2018-09-25T01:37:21.986Z,24.3
2018-09-25T01:38:12.933Z,24.3
2018-09-25T01:39:02.716Z,24.3
2018-09-25T01:39:53.301Z,24.3
2018-09-25T01:40:42.590Z,24.3
2018-09-25T01:41:32.620Z,24.3
2018-09-25T01:42:22.951Z,24.3
2018-09-25T01:43:13.022Z,24.3
2018-09-25T01:44:03.080Z,24.3
2018-09-25T01:44:53.156Z,24.3
2018-09-25T01:45:43.485Z,24.3
2018-09-25T01:46:33.611Z,24.3
2018-09-25T01:47:23.342Z,24.3
2018-09-25T01:48:13.672Z,24.3
2018-09-25T01:49:03.497Z,24.3
2018-09-25T01:49:53.892Z,24.3
2018-09-25T01:50:43.597Z,24.3
2018-09-25T01:51:33.652Z,24.3
2018-09-25T01:52:24.024Z,24.3
2018-09-25T01:53:13.527Z,24.3
2018-09-25T01:54:04.107Z,24.3
2018-09-25T01:54:53.915Z,24.3
2018-09-25T01:55:44.299Z,24.3
2018-09-25T01:56:34.330Z,24.3
2018-09-25T01:57:24.382Z,24.3
2018-09-25T01:58:14.144Z,24.3
2018-09-25T01:59:04.204Z,24.3
2018-09-25T01:59:53.982Z,24.3
2018-09-25T02:00:44.625Z,24.3
2018-09-25T02:01:34.379Z,24.3
2018-09-25T02:02:24.803Z,24.3
2018-09-25T02:03:14.839Z,24.3
2018-09-25T02:04:04.582Z,24.3
2018-09-25T02:04:54.352Z,24.3
2018-09-25T02:05:44.376Z,24.3
2018-09-25T02:06:35.079Z,24.3
2018-09-25T02:07:24.594Z,24.3
2018-09-25T02:08:14.902Z,24.3
2018-09-25T02:09:05.258Z,24.3
2018-09-25T02:09:55.019Z,24.3
2018-09-25T02:10:45.064Z,24.3
2018-09-25T02:11:35.149Z,24.3
2018-09-25T02:12:24.681Z,24.3
2018-09-25T02:13:15.514Z,24.3
2018-09-25T02:14:05.881Z,24.3
2018-09-25T02:14:55.381Z,24.3
2018-09-25T02:15:45.732Z,24.3
2018-09-25T02:16:35.237Z,24.3
2018-09-25T02:17:25.581Z,24.3
2018-09-25T02:18:15.368Z,24.3
2018-09-25T02:19:06.291Z,24.3
2018-09-25T02:19:55.481Z,24.3
2018-09-25T02:20:45.813Z,24.3
2018-09-25T02:21:35.883Z,24.3
2018-09-25T02:22:26.260Z,24.3
2018-09-25T02:23:16.343Z,24.3
2018-09-25T02:24:06.331Z,24.3
2018-09-25T02:24:56.415Z,24.3
2018-09-25T02:25:46.255Z,24.3
2018-09-25T02:26:36.021Z,24.3
2018-09-25T02:27:25.850Z,24.3
2018-09-25T02:28:15.853Z,24.3
2018-09-25T02:29:06.813Z,24.3
2018-09-25T02:29:55.380Z,24.3
2018-09-25T02:30:46.315Z,24.3
2018-09-25T02:31:36.080Z,24.3
2018-09-25T02:32:26.716Z,24.3
2018-09-25T02:33:16.027Z,24.3
2018-09-25T02:34:06.073Z,24.3
2018-09-25T02:34:56.893Z,24.3
2018-09-25T02:35:47.263Z,24.3
2018-09-25T02:36:37.282Z,24.3
2018-09-25T02:37:27.090Z,24.3
2018-09-25T02:38:17.137Z,24.3
2018-09-25T02:39:07.503Z,24.3
2018-09-25T02:39:57.330Z,24.3
2018-09-25T02:40:47.621Z,24.3
2018-09-25T02:41:37.412Z,24.3
2018-09-25T02:42:27.719Z,24.3
2018-09-25T02:43:17.512Z,24.3
2018-09-25T02:44:07.866Z,24.3
2018-09-25T02:44:57.651Z,24.3
2018-09-25T02:45:47.727Z,24.3
2018-09-25T02:46:38.001Z,24.3
2018-09-25T02:47:27.819Z,24.3
2018-09-25T02:48:17.882Z,24.3
2018-09-25T02:49:08.221Z,24.3
2018-09-25T02:49:58.282Z,24.3
2018-09-25T02:50:48.098Z,24.3
2018-09-25T02:51:38.418Z,24.2
2018-09-25T02:52:28.489Z,24.3
2018-09-25T02:53:18.536Z,24.3
2018-09-25T02:54:08.584Z,24.3
2018-09-25T02:54:58.106Z,24.2
2018-09-25T02:55:48.436Z,24.3
2018-09-25T02:56:38.818Z,24.3
2018-09-25T02:57:28.839Z,24.3
2018-09-25T02:58:18.923Z,24.3
2018-09-25T02:59:08.708Z,24.2
2018-09-25T02:59:58.749Z,24.3
2018-09-25T03:00:49.035Z,24.3
2018-09-25T03:01:39.048Z,24.2
2018-09-25T03:02:28.973Z,24.2
2018-09-25T03:03:19.126Z,24.2
2018-09-25T03:04:09.077Z,24.2
2018-09-25T03:04:59.480Z,24.3
2018-09-25T03:05:49.323Z,24.3
2018-09-25T03:06:39.379Z,24.3
2018-09-25T03:07:29.643Z,24.2
2018-09-25T03:08:19.662Z,24.2
2018-09-25T03:09:09.448Z,24.2
2018-09-25T03:09:59.833Z,24.2
2018-09-25T03:10:49.882Z,24.2
2018-09-25T03:11:39.946Z,24.2
2018-09-25T03:12:30.010Z,24.2
2018-09-25T03:13:19.755Z,24.2
2018-09-25T03:14:09.835Z,24.3
2018-09-25T03:15:00.198Z,24.2
2018-09-25T03:15:49.958Z,24.2
2018-09-25T03:16:40.003Z,24.2
2018-09-25T03:17:30.070Z,24.2
2018-09-25T03:18:20.209Z,24.2
2018-09-25T03:19:10.838Z,24.2
2018-09-25T03:20:00.251Z,24.2
2018-09-25T03:20:50.359Z,24.2
2018-09-25T03:21:40.405Z,24.2
2018-09-25T03:22:30.481Z,24.2
2018-09-25T03:23:20.518Z,24.2
2018-09-25T03:24:10.605Z,24.2
2018-09-25T03:25:00.680Z,24.3
2018-09-25T03:25:50.975Z,24.2
2018-09-25T03:26:41.029Z,24.3
2018-09-25T03:27:30.812Z,24.3
2018-09-25T03:28:20.902Z,24.2
2018-09-25T03:29:10.934Z,24.2
2018-09-25T03:30:01.287Z,24.3
2018-09-25T03:30:50.811Z,24.3
2018-09-25T03:31:41.516Z,24.3
2018-09-25T03:32:31.553Z,24.3
2018-09-25T03:33:20.975Z,24.2
2018-09-25T03:34:11.307Z,24.3
2018-09-25T03:35:01.391Z,24.3
2018-09-25T03:35:51.724Z,24.3
2018-09-25T03:36:41.812Z,24.3
2018-09-25T03:37:31.592Z,24.3
2018-09-25T03:38:21.650Z,24.3
2018-09-25T03:39:11.699Z,24.3
2018-09-25T03:40:02.098Z,24.3
2018-09-25T03:40:52.172Z,24.3
2018-09-25T03:41:41.848Z,24.3
2018-09-25T03:42:31.941Z,24.3
2018-09-25T03:43:21.688Z,24.3
2018-09-25T03:44:12.336Z,24.3
2018-09-25T03:45:02.426Z,24.3
2018-09-25T03:45:52.526Z,24.3
2018-09-25T03:46:42.532Z,24.3
2018-09-25T03:47:32.004Z,24.3
2018-09-25T03:48:22.063Z,24.3
2018-09-25T03:49:12.457Z,24.3
2018-09-25T05:24:31.328Z,24.1
2018-09-25T05:25:21.004Z,24.1
2018-09-25T05:26:11.074Z,24.1
2018-09-25T05:27:00.920Z,24.1
2018-09-25T05:27:50.642Z,24
2018-09-25T05:28:41.276Z,24
2018-09-25T05:29:31.629Z,24.1
2018-09-25T05:30:21.401Z,24
2018-09-25T05:31:11.434Z,24
2018-09-25T05:32:01.517Z,24.1
2018-09-25T05:32:51.562Z,24
2018-09-25T05:33:41.621Z,24.1
2018-09-25T05:34:31.717Z,24
2018-09-25T05:35:21.761Z,24.1
2018-09-25T05:36:11.537Z,24.1
2018-09-25T05:37:01.878Z,24.1
2018-09-25T05:37:51.952Z,24
2018-09-25T05:38:41.997Z,24.1
2018-09-25T05:39:32.098Z,24.1
2018-09-25T05:40:22.128Z,24
2018-09-25T05:41:12.222Z,24
2018-09-25T05:42:02.191Z,24
2018-09-25T05:42:52.316Z,24
2018-09-25T05:43:42.081Z,24.1
2018-09-25T05:44:32.431Z,24
2018-09-25T05:45:22.211Z,24.1
2018-09-25T05:46:12.279Z,24
2018-09-25T05:47:02.634Z,24
2018-09-25T05:47:52.771Z,24
2018-09-25T05:48:42.672Z,24
2018-09-25T05:49:32.348Z,24
2018-09-25T05:50:22.978Z,24
2018-09-25T05:51:13.244Z,24
2018-09-25T05:52:02.789Z,24
2018-09-25T05:52:52.843Z,24
2018-09-25T05:53:43.553Z,24
2018-09-25T05:54:33.069Z,24
2018-09-25T05:55:22.740Z,24
2018-09-25T05:56:13.041Z,24
2018-09-25T05:57:03.366Z,24.1
2018-09-25T05:57:53.444Z,24.1
2018-09-25T05:58:43.490Z,24
2018-09-25T05:59:33.288Z,24
2018-09-25T06:00:23.626Z,24
2018-09-25T06:01:13.703Z,24
2018-09-25T06:02:03.769Z,24
2018-09-25T06:02:53.816Z,24
2018-09-25T06:03:43.293Z,24
2018-09-25T06:04:33.661Z,24
2018-09-25T06:05:24.239Z,24
2018-09-25T06:06:14.125Z,24
2018-09-25T06:07:04.120Z,24
2018-09-25T06:07:53.920Z,24
2018-09-25T06:08:44.233Z,24
2018-09-25T06:09:34.551Z,24
2018-09-25T06:10:24.086Z,24
2018-09-25T06:11:14.670Z,24
2018-09-25T06:12:04.204Z,24
2018-09-25T06:12:54.559Z,24
2018-09-25T06:13:44.313Z,24
2018-09-25T06:14:34.448Z,24
2018-09-25T06:15:24.743Z,24
2018-09-25T06:16:14.797Z,24
2018-09-25T06:17:04.575Z,24
2018-09-25T06:17:54.632Z,24
2018-09-25T06:18:45.269Z,24
2018-09-25T06:19:35.042Z,24
2018-09-25T06:20:25.112Z,24
2018-09-25T06:21:15.181Z,24
2018-09-25T06:22:05.224Z,24
2018-09-25T06:22:55.552Z,24
2018-09-25T06:23:45.347Z,24
2018-09-25T06:24:35.425Z,24
2018-09-25T06:25:25.195Z,24
2018-09-25T06:26:15.574Z,24
2018-09-25T06:27:05.639Z,24
2018-09-25T06:27:55.122Z,24
2018-09-25T06:28:46.321Z,24
2018-09-25T06:29:35.859Z,24
2018-09-25T06:30:25.851Z,24
2018-09-25T06:31:16.212Z,24
2018-09-25T06:32:05.767Z,24
2018-09-25T06:32:56.048Z,24
2018-09-25T06:33:46.141Z,24
2018-09-25T06:34:36.300Z,24
2018-09-25T06:35:25.673Z,24
2018-09-25T06:36:16.401Z,24
2018-09-25T06:37:06.163Z,24
2018-09-25T06:37:55.871Z,24
2018-09-25T06:38:46.387Z,24
2018-09-25T06:39:36.580Z,24
2018-09-25T06:40:26.410Z,24
2018-09-25T06:41:16.661Z,24.1
2018-09-25T06:42:06.728Z,24
2018-09-25T06:42:56.802Z,24
2018-09-25T06:43:46.557Z,24
2018-09-25T06:44:36.621Z,24
2018-09-25T06:45:26.966Z,24
2018-09-25T06:46:17.565Z,24.1
2018-09-25T06:47:07.602Z,24
2018-09-25T06:47:56.877Z,24.1
2018-09-25T06:48:47.215Z,24.1
2018-09-25T06:49:37.280Z,24.1
2018-09-25T06:50:27.073Z,24.1
2018-09-25T06:51:17.089Z,24.1
2018-09-25T06:52:07.521Z,24.1
2018-09-25T06:52:57.517Z,24.1
2018-09-25T06:53:47.295Z,24.1
2018-09-25T06:54:37.823Z,24.1
2018-09-25T06:55:27.737Z,24.1
2018-09-25T06:56:17.195Z,24.1
2018-09-25T06:57:07.900Z,23.6
2018-09-25T06:57:57.120Z,30.3
2018-09-25T06:58:47.968Z,47.3
2018-09-25T06:59:38.022Z,51.8
2018-09-25T07:00:28.139Z,51.7
2018-09-25T07:01:18.177Z,51.3
2018-09-25T07:02:08.473Z,50.8
2018-09-25T07:02:58.314Z,49.9
2018-09-25T07:03:48.347Z,49.1
2018-09-25T07:04:38.382Z,48.5
2018-09-25T07:05:28.495Z,47.9
2018-09-25T07:06:18.260Z,47.3
2018-09-25T07:07:08.584Z,46.8
2018-09-25T07:07:58.371Z,46.3
2018-09-25T07:08:48.710Z,45.8
2018-09-25T07:09:39.339Z,45.2
2018-09-25T07:10:30.437Z,44.7
2018-09-25T07:11:18.949Z,44.1
2018-09-25T07:12:09.226Z,43.8
2018-09-25T07:12:58.462Z,43.3
2018-09-25T07:13:49.074Z,42.8
2018-09-25T07:14:38.869Z,42.4
2018-09-25T07:15:29.201Z,42
2018-09-25T07:16:18.703Z,41.6
2018-09-25T07:17:09.648Z,41.2
2018-09-25T07:17:59.760Z,40.8
2018-09-25T07:18:49.454Z,40.4
2018-09-25T07:19:39.028Z,40
2018-09-25T07:20:29.598Z,42.7
2018-09-25T07:21:19.625Z,48.4
2018-09-25T07:22:09.494Z,56
2018-09-25T07:22:59.975Z,55.3
2018-09-25T07:23:49.524Z,53.5
2018-09-25T07:24:40.593Z,52.1
2018-09-25T07:25:29.963Z,51.2
2018-09-25T07:26:19.737Z,50.6
2018-09-25T07:27:09.800Z,50.1
2018-09-25T07:28:00.147Z,49.6
2018-09-25T07:28:50.192Z,48.9
2018-09-25T07:29:40.270Z,48.4
2018-09-25T07:30:30.309Z,47.8
2018-09-25T07:31:20.375Z,47.3
2018-09-25T07:32:10.448Z,46.7
2018-09-25T07:33:00.757Z,46.2
2018-09-25T07:33:50.020Z,45.7
2018-09-25T07:34:40.683Z,45.3
2018-09-25T07:35:30.785Z,44.8
2018-09-25T07:36:20.765Z,44.3
2018-09-25T07:37:10.847Z,44.6
2018-09-25T07:38:00.852Z,45.4
2018-09-25T07:38:50.704Z,53.2
2018-09-25T07:39:40.172Z,56.8
2018-09-25T07:40:30.535Z,57.2
2018-09-25T07:41:20.012Z,56.3
2018-09-25T07:42:10.284Z,54.6
2018-09-25T07:43:00.849Z,53.6
2018-09-25T07:43:51.084Z,52.7
2018-09-25T07:44:41.229Z,52.1
2018-09-25T07:45:30.686Z,51.7
2018-09-25T07:46:21.254Z,51.1
2018-09-25T07:47:09.762Z,50.4
2018-09-25T07:48:01.538Z,49.9
2018-09-25T07:48:51.698Z,49.9
2018-09-25T07:49:41.771Z,50.1
2018-09-25T07:50:31.799Z,56.4
2018-09-25T07:51:21.596Z,59.1
2018-09-25T07:52:12.152Z,59.4
2018-09-25T07:53:02.289Z,58.6
2018-09-25T07:53:52.391Z,57
2018-09-25T07:54:42.540Z,55.1
2018-09-25T07:55:33.097Z,54.4
2018-09-25T07:56:22.566Z,55.3
2018-09-25T07:57:12.516Z,56.5
2018-09-25T07:58:02.491Z,57.4
2018-09-25T07:59:41.925Z,57.7
2018-09-25T08:00:32.281Z,57.3
2018-09-25T08:01:22.636Z,56.9
2018-09-25T08:02:12.399Z,56.9
2018-09-25T08:03:02.674Z,57.1
2018-09-25T08:03:52.893Z,57.6
2018-09-25T08:04:42.606Z,58
2018-09-25T08:05:32.945Z,58.2
2018-09-25T08:06:22.986Z,58.2
2018-09-25T08:07:12.785Z,58.2
2018-09-25T08:08:02.866Z,58.1
2018-09-25T08:08:53.035Z,58.1
2018-09-25T08:09:43.036Z,58
2018-09-25T08:10:33.425Z,58.1
2018-09-25T08:11:23.548Z,58.3
2018-09-25T08:13:02.663Z,58.8
2018-09-25T08:13:53.035Z,58.9
2018-09-25T08:14:43.734Z,59.1
2018-09-25T08:15:33.978Z,59.2
2018-09-25T08:16:23.760Z,59.3
2018-09-25T08:17:13.553Z,59.3
2018-09-25T08:18:03.607Z,59.4
2018-09-25T08:18:53.175Z,59.6
2018-09-25T08:19:44.012Z,59.7
2018-09-25T08:20:33.567Z,59.9
2018-09-25T08:21:23.290Z,60
2018-09-25T08:22:13.915Z,60.1
2018-09-25T08:23:04.269Z,60.2
2018-09-25T08:23:53.836Z,60.4
2018-09-25T08:24:43.868Z,60.5
2018-09-25T08:25:34.172Z,60.7
2018-09-25T08:26:24.494Z,60.9
2018-09-25T08:27:14.559Z,61
2018-09-25T08:28:04.135Z,61.1
2018-09-25T08:28:54.425Z,61.3
2018-09-25T08:29:45.250Z,61.5
2018-09-25T08:30:34.857Z,61.6
2018-09-25T08:31:24.593Z,61.8
2018-09-25T08:32:14.697Z,61.9
2018-09-25T08:33:05.022Z,62.1
2018-09-25T08:33:55.067Z,62.3
2018-09-25T08:34:45.403Z,62.4
2018-09-25T08:35:35.206Z,62.5
2018-09-25T08:36:25.252Z,62.6
2018-09-25T08:37:15.376Z,62.8
2018-09-25T08:38:05.114Z,62.9
2018-09-25T08:38:56.101Z,62.9
2018-09-25T08:39:45.554Z,63
2018-09-25T08:40:35.617Z,63.1
2018-09-25T08:41:25.643Z,63.3
2018-09-25T08:42:15.698Z,63.4
2018-09-25T08:43:05.476Z,63.6
2018-09-25T08:43:55.816Z,63.6
2018-09-25T08:44:45.901Z,63.7
2018-09-25T08:45:35.961Z,63.8
2018-09-25T08:46:25.701Z,63.8
2018-09-25T08:47:15.520Z,63.9
2018-09-25T08:48:05.847Z,64.1
2018-09-25T08:48:56.229Z,64.1
2018-09-25T08:49:46.244Z,64.3
2018-09-25T08:50:36.308Z,64.4
2018-09-25T08:51:26.378Z,64.5
2018-09-25T08:52:16.406Z,64.6
2018-09-25T08:53:06.553Z,64.6
2018-09-25T08:53:56.628Z,64.7
2018-09-25T08:54:46.638Z,64.8
2018-09-25T08:55:36.415Z,64.9
2018-09-25T08:56:26.780Z,65
2018-09-25T08:57:16.533Z,65.1
2018-09-25T08:58:06.868Z,65.3
2018-09-25T08:58:56.959Z,65.3
2018-09-25T08:59:46.710Z,65.4
2018-09-25T09:00:37.372Z,65.5
2018-09-25T09:01:27.145Z,65.6
2018-09-25T09:02:17.187Z,65.8
2018-09-25T09:03:07.246Z,65.8
2018-09-25T09:03:56.842Z,65.9
2018-09-25T09:04:46.910Z,66
2018-09-25T09:05:37.443Z,66.1
2018-09-25T09:06:27.759Z,66.1
2018-09-25T09:07:17.542Z,66.1
2018-09-25T09:08:07.393Z,66.2
2018-09-25T09:08:57.727Z,66.3
2018-09-25T09:09:47.739Z,66.4
2018-09-25T09:10:37.819Z,66.4
2018-09-25T09:11:27.344Z,66.5
2018-09-25T09:12:17.945Z,66.5
2018-09-25T09:13:08.017Z,66.6
2018-09-25T09:13:57.808Z,66.6
2018-09-25T09:14:48.114Z,66.7
2018-09-25T09:15:38.172Z,66.8
2018-09-25T09:16:27.959Z,66.8
2018-09-25T09:17:18.020Z,66.9
2018-09-25T09:18:08.411Z,66.9
2018-09-25T09:18:58.431Z,67
2018-09-25T09:19:49.126Z,67.1
2018-09-25T09:20:38.264Z,67.2
2018-09-25T09:21:28.108Z,67.3
2018-09-25T09:22:18.411Z,67.3
2018-09-25T09:39:10.050Z,69
2018-09-25T09:40:00.202Z,69.1
2018-09-25T09:40:49.739Z,69.1
2018-09-25T09:41:43.550Z,69.1
2018-09-25T09:42:30.109Z,69.2
2018-09-25T09:43:20.141Z,69.2
2018-09-25T09:44:09.927Z,69.3
2018-09-25T09:45:00.268Z,69.3
2018-09-25T09:45:50.364Z,69.3
2018-09-25T09:46:40.417Z,69.4
2018-09-25T09:47:30.451Z,69.4
2018-09-25T09:48:20.511Z,69.4
2018-09-25T09:49:10.584Z,69.6
2018-09-25T09:50:00.947Z,69.6
2018-09-25T09:50:50.426Z,69.6
2018-09-25T09:51:40.491Z,69.7
2018-09-25T09:52:30.522Z,69.8
2018-09-25T09:53:20.876Z,69.8
2018-09-25T09:54:10.371Z,69.8
2018-09-25T09:55:01.048Z,69.9
2018-09-25T09:55:51.073Z,69.9
2018-09-25T09:56:41.140Z,69.9
2018-09-25T09:57:30.915Z,69.9
2018-09-25T09:58:20.958Z,70
2018-09-25T09:59:11.333Z,70
2018-09-25T10:00:01.443Z,69.9
2018-09-25T10:00:51.403Z,69.9
2018-09-25T10:01:40.951Z,69.9
2018-09-25T10:02:31.617Z,70.1
2018-09-25T10:03:21.346Z,70.1
2018-09-25T10:04:11.440Z,70.3
2018-09-25T10:05:01.488Z,70.4
2018-09-25T10:05:52.243Z,70.5
2018-09-25T10:06:42.364Z,70.6
2018-09-25T10:07:31.954Z,70.8
2018-09-25T10:08:22.018Z,70.8
2018-09-25T10:09:12.133Z,70.9
2018-09-25T10:10:01.843Z,71.1
2018-09-25T10:10:51.935Z,71.2
2018-09-25T10:11:41.695Z,70.6
2018-09-25T10:12:32.644Z,69.8
2018-09-25T10:13:22.133Z,69.9
2018-09-25T10:14:12.457Z,70.3
2018-09-25T10:15:02.525Z,70.8
2018-09-25T10:15:52.826Z,71.1
2018-09-25T10:16:42.120Z,71.3
2018-09-25T10:17:32.436Z,71.3
2018-09-25T10:18:22.672Z,71.1
2018-09-25T10:19:12.814Z,70.9
2018-09-25T10:20:02.894Z,70.9
2018-09-25T10:20:52.966Z,71
2018-09-25T10:21:43.028Z,71.1
2018-09-25T10:22:33.063Z,71.4
2018-09-25T10:23:22.877Z,71.6
2018-09-25T10:24:12.925Z,71.7
2018-09-25T10:25:03.304Z,71.8
2018-09-25T10:25:53.368Z,71.8
2018-09-25T10:26:43.431Z,71.8
2018-09-25T10:27:33.637Z,71.8
2018-09-25T10:28:23.508Z,71.9
2018-09-25T10:29:13.584Z,72
2018-09-25T10:30:03.645Z,72.1
2018-09-25T10:30:52.845Z,72.3
2018-09-25T10:31:43.783Z,72.3
2018-09-25T10:32:33.833Z,72.4
2018-09-25T10:33:23.645Z,72.4
2018-09-25T10:34:14.242Z,72.4
2018-09-25T10:35:04.038Z,72.4
2018-09-25T10:35:53.625Z,72.4
2018-09-25T10:36:44.137Z,72.5
2018-09-25T10:37:33.913Z,72.6
2018-09-25T10:38:24.290Z,72.6
2018-09-25T10:39:14.317Z,72.8
2018-09-25T10:40:03.918Z,72.9
2018-09-25T10:40:54.818Z,73.1
2018-09-25T10:41:44.505Z,73.2
2018-09-25T10:42:34.615Z,72.9
2018-09-25T10:43:24.631Z,72.4
2018-09-25T10:44:14.252Z,71.3
2018-09-25T10:45:04.759Z,70.6
2018-09-25T10:45:55.424Z,70.6
2018-09-25T10:46:44.892Z,71.2
2018-09-25T10:47:34.184Z,71.9
2018-09-25T10:48:25.007Z,72.6
2018-09-25T10:49:15.149Z,72.9
2018-09-25T10:50:05.562Z,73.1
2018-09-25T10:50:54.907Z,72.5
2018-09-25T10:51:45.007Z,70.9
2018-09-25T10:52:35.335Z,68.9
2018-09-25T10:53:25.099Z,67.4
2018-09-25T10:54:15.455Z,66.1
2018-09-25T10:55:05.490Z,65.6
2018-09-25T10:55:57.051Z,65.7
2018-09-25T10:56:45.137Z,66.2
2018-09-25T10:57:35.739Z,67.2
2018-09-25T10:58:26.154Z,68.2
2018-09-25T10:59:15.658Z,68.8
2018-09-25T11:00:05.876Z,68.9
2018-09-25T11:00:55.960Z,69
2018-09-25T11:01:45.754Z,69.1
2018-09-25T11:02:35.517Z,68.8
2018-09-25T11:03:25.957Z,67.3
2018-09-25T11:04:16.202Z,65.6
2018-09-25T11:05:06.534Z,64.1
2018-09-25T11:05:55.837Z,63.1
2018-09-25T11:06:46.754Z,62.3
2018-09-25T11:07:36.455Z,61.3
2018-09-25T11:08:26.485Z,60.4
2018-09-25T11:09:16.282Z,59.9
2018-09-25T11:10:07.785Z,59.7
2018-09-25T11:10:55.958Z,59.4
2018-09-25T11:11:46.743Z,59.4
2018-09-25T11:12:36.323Z,60.4
2018-09-25T11:13:26.614Z,67.7
2018-09-25T11:14:16.101Z,70.8
2018-09-25T11:15:06.728Z,71.1
2018-09-25T11:15:57.066Z,70.1
2018-09-25T11:16:47.184Z,68.2
2018-09-25T11:17:37.222Z,66.7
2018-09-25T11:18:27.331Z,66.4
2018-09-25T11:19:17.326Z,67.4
2018-09-25T11:20:07.396Z,68.8
2018-09-25T11:20:57.206Z,69.9
2018-09-25T11:21:47.566Z,70.2
2018-09-25T11:22:37.259Z,70.1
2018-09-25T11:23:27.619Z,69.6
2018-09-25T11:24:17.695Z,69.2
2018-09-25T11:25:07.760Z,69.1
2018-09-25T11:25:57.558Z,69.4
2018-09-25T11:26:47.610Z,69.8
2018-09-25T11:27:37.957Z,70.1
2018-09-25T11:28:27.998Z,70.3
2018-09-25T11:29:17.513Z,70.3
2018-09-25T11:30:07.580Z,70.3
2018-09-25T11:30:58.468Z,70.3
2018-09-25T11:31:48.533Z,70.3
2018-09-25T11:32:37.558Z,70.4
2018-09-25T11:33:28.142Z,70.5
2018-09-25T11:34:18.455Z,70.6
2018-09-25T11:35:08.819Z,70.7
2018-09-25T11:35:58.583Z,70.7
2018-09-25T11:36:48.632Z,70.7
2018-09-25T11:37:38.652Z,70.7
2018-09-25T11:38:28.779Z,70.6
2018-09-25T11:39:19.150Z,70.7
2018-09-25T11:40:08.927Z,70.7
2018-09-25T11:40:59.259Z,70.7
2018-09-25T11:41:49.082Z,70.6
2018-09-25T11:42:39.095Z,70.6
2018-09-25T11:43:29.186Z,70.6
2018-09-25T11:44:19.202Z,70.5
2018-09-25T11:45:09.255Z,70.1
2018-09-25T11:45:58.989Z,69.9
2018-09-25T11:46:49.199Z,69.9
2018-09-25T11:47:39.459Z,69.6
2018-09-25T11:48:29.244Z,69.2
2018-09-25T11:49:19.292Z,69.1
2018-09-25T11:50:09.654Z,69.5
2018-09-25T11:50:59.686Z,70
2018-09-25T11:51:49.760Z,70.5
2018-09-25T11:52:40.165Z,70.9
2018-09-25T11:53:30.144Z,71.2
2018-09-25T11:54:19.970Z,71.1
2018-09-25T11:55:09.753Z,70.1
2018-09-25T11:55:59.504Z,69.1
2018-09-25T11:56:49.584Z,68.7
2018-09-25T11:57:39.166Z,68.1
2018-09-25T11:58:30.836Z,67.8
2018-09-25T11:59:20.051Z,67.3
2018-09-25T12:00:10.465Z,67.3
2018-09-25T12:01:00.214Z,67.9
2018-09-25T12:01:50.283Z,67.9
2018-09-25T12:02:40.596Z,67.1
2018-09-25T12:03:30.700Z,65.9
2018-09-25T12:04:20.023Z,64.7
2018-09-25T12:05:10.193Z,63.7
2018-09-25T12:06:00.258Z,62.8
2018-09-25T12:06:50.387Z,62.2
2018-09-25T12:07:40.963Z,61.8
2018-09-25T12:08:30.728Z,61.4
2018-09-25T12:09:20.355Z,60.8
2018-09-25T12:10:10.133Z,60
2018-09-25T12:11:00.049Z,59.3
2018-09-25T12:11:50.215Z,58.5
2018-09-25T12:13:30.902Z,56.9
2018-09-25T12:15:10.955Z,55.6
2018-09-25T12:16:00.755Z,54.9
2018-09-25T12:16:51.654Z,54.3
2018-09-25T12:17:41.442Z,53.6
2018-09-25T12:18:31.774Z,53
2018-09-25T12:20:11.329Z,51.8
2018-09-25T12:21:01.379Z,51.3
2018-09-25T12:21:51.742Z,50.8
2018-09-25T12:22:42.094Z,50.2
2018-09-25T12:23:33.285Z,49.7
2018-09-25T12:24:22.420Z,49.2
2018-09-25T12:25:12.249Z,48.7
2018-09-25T12:26:02.315Z,48.3
2018-09-25T12:26:52.109Z,47.8
2018-09-25T12:27:42.214Z,47.4
2018-09-25T12:28:32.511Z,46.9
2018-09-25T12:29:22.009Z,46.5
2018-09-25T12:30:12.364Z,46.1
2018-09-25T12:31:02.695Z,45.8
2018-09-25T12:31:52.194Z,45.4
2018-09-25T12:32:44.768Z,45
2018-09-25T12:33:32.328Z,44.6
2018-09-25T12:34:22.675Z,44.3
2018-09-25T12:35:13.008Z,43.9
2018-09-25T12:36:02.803Z,43.6
2018-09-25T12:36:53.141Z,43.3
2018-09-25T12:37:43.456Z,42.9
2018-09-25T12:38:33.255Z,42.6
2018-09-25T12:39:23.321Z,42.3
2018-09-25T12:40:13.683Z,42
2018-09-25T12:41:03.570Z,41.8
2018-09-25T12:41:53.508Z,41.4
2018-09-25T12:42:43.545Z,41.2
2018-09-25T12:43:33.814Z,40.9
2018-09-25T12:44:23.415Z,40.7
2018-09-25T12:45:13.470Z,40.4
2018-09-25T12:46:03.827Z,40.2
2018-09-25T12:46:53.900Z,39.9
2018-09-25T12:47:43.660Z,39.6
2018-09-25T12:48:33.442Z,39.4
2018-09-25T12:49:23.788Z,39.2
2018-09-25T12:50:14.119Z,39
2018-09-25T12:51:03.634Z,38.8
2018-09-25T12:51:53.974Z,38.6
2018-09-25T12:52:44.599Z,38.3
2018-09-25T12:53:34.395Z,38.1
2018-09-25T12:54:24.452Z,37.9
2018-09-25T12:55:14.469Z,37.8
2018-09-25T12:56:04.537Z,37.6
2018-09-25T12:56:54.147Z,37.4
2018-09-25T12:57:44.694Z,37.2
2018-09-25T12:58:34.751Z,37
2018-09-25T12:59:24.836Z,36.8
2018-09-25T13:00:14.612Z,36.7
2018-09-25T13:01:04.959Z,36.5
2018-09-25T13:01:54.728Z,36.3
2018-09-25T13:02:45.084Z,36.2
2018-09-25T13:03:35.181Z,36
2018-09-25T13:04:25.504Z,35.9
2018-09-25T13:05:15.003Z,35.7
2018-09-25T13:06:05.328Z,35.6
2018-09-25T13:06:55.381Z,35.4
2018-09-25T13:07:45.448Z,35.3
2018-09-25T13:08:35.509Z,35.1
2018-09-25T13:09:25.291Z,39.1
2018-09-25T13:10:15.666Z,46
2018-09-25T13:11:05.726Z,60.8
2018-09-25T13:11:55.474Z,65.2
2018-09-25T13:12:45.271Z,65
2018-09-25T13:13:35.731Z,64.3
2018-09-25T13:14:25.178Z,63.4
2018-09-25T13:15:16.008Z,62.6
2018-09-25T13:16:06.768Z,61.7
2018-09-25T13:16:55.862Z,60.8
2018-09-25T13:17:46.221Z,60
2018-09-25T13:18:36.261Z,59.1
2018-09-25T13:19:26.043Z,58.3
2018-09-25T13:20:15.615Z,57.5
2018-09-25T13:21:06.453Z,56.8
2018-09-25T13:21:55.938Z,56
2018-09-25T13:22:46.588Z,55.3
2018-09-25T13:23:36.663Z,54.6
2018-09-25T13:24:26.725Z,53.9
2018-09-25T13:25:17.030Z,53.2
2018-09-25T13:26:06.828Z,52.6
2018-09-25T13:27:46.955Z,51.3
2018-09-25T13:28:37.052Z,50.8
2018-09-25T13:29:27.088Z,50.3
2018-09-25T13:30:16.570Z,49.7
2018-09-25T13:31:07.192Z,49.2
2018-09-25T13:31:57.518Z,48.6
2018-09-25T13:32:47.316Z,48.1
2018-09-25T13:33:37.114Z,47.7
2018-09-25T13:34:27.167Z,47.2
2018-09-25T13:35:17.845Z,46.7
2018-09-25T13:36:07.567Z,46.3
2018-09-25T13:36:57.607Z,45.9
2018-09-25T13:37:47.424Z,45.4
2018-09-25T13:38:37.764Z,45.1
2018-09-25T13:39:27.786Z,44.7
2018-09-25T13:40:17.914Z,44.3
2018-09-25T13:41:08.007Z,43.9
2018-09-25T13:41:57.974Z,43.6
2018-09-25T13:42:48.080Z,43.2
2018-09-25T13:43:38.145Z,42.9
2018-09-25T13:44:28.272Z,42.5
2018-09-25T13:45:18.287Z,42.3
2018-09-25T13:46:08.045Z,41.9
2018-09-25T13:46:58.657Z,41.6
2018-09-25T13:47:48.691Z,41.3
2018-09-25T13:48:37.946Z,41
2018-09-25T13:49:28.621Z,40.8
2018-09-25T13:50:18.699Z,40.4
2018-09-25T13:51:08.691Z,40.2
2018-09-25T13:51:59.023Z,39.9
2018-09-25T13:52:48.271Z,39.7
2018-09-25T13:53:38.868Z,39.4
2018-09-25T13:54:28.983Z,39.2
2018-09-25T13:55:19.026Z,38.9
2018-09-25T13:56:09.622Z,38.8
2018-09-25T13:56:59.401Z,38.5
2018-09-25T13:57:49.176Z,38.3
2018-09-25T13:58:38.984Z,38.1
2018-09-25T13:59:29.043Z,37.9
2018-09-25T14:00:19.398Z,37.6
2018-09-25T14:01:09.159Z,37.4
2018-09-25T14:01:59.231Z,37.3
2018-09-25T14:02:49.593Z,37.1
2018-09-25T14:03:39.166Z,36.9